createdAt,value
2018-07-27T00:00:01.331Z,4.58
2018-07-27T00:00:13.765Z,4.58
2018-07-27T00:00:26.179Z,4.58
2018-07-27T00:00:38.733Z,4.58
2018-07-27T00:00:51.148Z,4.58
2018-07-27T00:01:03.557Z,4.58
2018-07-27T00:01:16.121Z,4.58
2018-07-27T00:01:28.530Z,4.58
2018-07-27T00:01:40.966Z,4.3
2018-07-27T00:01:53.358Z,4.3
2018-07-27T00:02:05.945Z,4.3
2018-07-27T00:02:18.343Z,4.3
2018-07-27T00:02:30.751Z,4.3
2018-07-27T00:02:43.166Z,4.3
2018-07-27T00:02:55.553Z,4.3
2018-07-27T00:03:07.941Z,4.3
2018-07-27T00:03:20.333Z,4.3
2018-07-27T00:03:32.741Z,4.3
2018-07-27T00:03:45.157Z,4.3
2018-07-27T00:03:57.729Z,4.3
2018-07-27T00:04:10.149Z,4.3
2018-07-27T00:04:22.554Z,4.3
2018-07-27T00:04:35.021Z,4.3
2018-07-27T00:04:47.440Z,4.3
2018-07-27T00:04:59.947Z,4.3
2018-07-27T00:05:12.353Z,4.3
2018-07-27T00:05:24.785Z,4.3
2018-07-27T00:05:37.236Z,4.3
2018-07-27T00:05:49.672Z,4.3
2018-07-27T00:06:02.068Z,4.3
2018-07-27T00:06:14.472Z,4.3
2018-07-27T00:06:26.863Z,4.3
2018-07-27T00:06:39.269Z,4.3
2018-07-27T00:06:51.679Z,4.3
2018-07-27T00:07:04.102Z,4.3
2018-07-27T00:07:16.515Z,4.3
2018-07-27T00:07:28.929Z,4.3
2018-07-27T00:07:41.324Z,4.3
2018-07-27T00:07:53.865Z,4.3
2018-07-27T00:08:06.254Z,4.3
2018-07-27T00:08:18.676Z,4.3
2018-07-27T00:08:31.096Z,4.3
2018-07-27T00:08:43.507Z,4.3
2018-07-27T00:08:55.911Z,4.3
2018-07-27T00:09:08.328Z,4.3
2018-07-27T00:09:20.739Z,4.3
2018-07-27T00:09:33.130Z,4.3
2018-07-27T00:09:45.523Z,4.3
2018-07-27T00:09:57.931Z,4.3
2018-07-27T00:10:10.329Z,4.3
2018-07-27T00:10:22.744Z,4.3
2018-07-27T00:10:35.196Z,4.3
2018-07-27T00:10:47.593Z,4.3
2018-07-27T00:10:59.977Z,4.3
2018-07-27T00:11:12.392Z,4.3
2018-07-27T00:11:24.785Z,4.3
2018-07-27T00:11:37.192Z,4.3
2018-07-27T00:11:49.574Z,4.15
2018-07-27T00:12:01.993Z,4.15
2018-07-27T00:12:14.425Z,4.15
2018-07-27T00:12:26.841Z,4.15
2018-07-27T00:12:39.252Z,4.15
2018-07-27T00:12:51.718Z,4.15
2018-07-27T00:13:04.171Z,4.15
2018-07-27T00:13:16.573Z,4.15
2018-07-27T00:13:28.991Z,4.15
2018-07-27T00:13:41.548Z,4.15
2018-07-27T00:13:54.017Z,4.15
2018-07-27T00:14:06.430Z,4.15
2018-07-27T00:14:18.883Z,4.15
2018-07-27T00:14:31.329Z,4.15
2018-07-27T00:14:43.741Z,4.15
2018-07-27T00:14:56.149Z,4.15
2018-07-27T00:15:08.570Z,4.15
2018-07-27T00:15:20.980Z,4.15
2018-07-27T00:15:33.374Z,4.15
2018-07-27T00:15:45.775Z,4.15
2018-07-27T00:15:58.191Z,4.15
2018-07-27T00:16:10.597Z,4.15
2018-07-27T00:16:23.020Z,4.15
2018-07-27T00:16:35.402Z,4.15
2018-07-27T00:16:47.804Z,4.15
2018-07-27T00:17:00.199Z,4.15
2018-07-27T00:17:12.601Z,4.15
2018-07-27T00:17:25.047Z,4.15
2018-07-27T00:17:37.466Z,4.15
2018-07-27T00:17:49.897Z,4.15
2018-07-27T00:18:02.308Z,4.15
2018-07-27T00:18:14.721Z,4.15
2018-07-27T00:18:27.129Z,4.15
2018-07-27T00:18:39.597Z,4.15
2018-07-27T00:18:52.036Z,4.15
2018-07-27T00:19:04.448Z,4.15
2018-07-27T00:19:16.873Z,4.15
2018-07-27T00:19:29.324Z,4.15
2018-07-27T00:19:41.724Z,4.15
2018-07-27T00:19:54.133Z,4.15
2018-07-27T00:20:06.547Z,4.15
2018-07-27T00:20:18.946Z,4.15
2018-07-27T00:20:31.392Z,4.15
2018-07-27T00:20:43.802Z,4.15
2018-07-27T00:20:56.205Z,4.15
2018-07-27T00:21:08.621Z,4.15
2018-07-27T00:21:21.039Z,4.15
2018-07-27T00:21:33.549Z,4.15
2018-07-27T00:21:45.970Z,4.45
2018-07-27T00:21:58.412Z,4.45
2018-07-27T00:22:10.845Z,4.45
2018-07-27T00:22:23.272Z,4.45
2018-07-27T00:22:35.668Z,4.45
2018-07-27T00:22:48.103Z,4.45
2018-07-27T00:23:00.498Z,4.45
2018-07-27T00:23:12.996Z,4.45
2018-07-27T00:23:25.464Z,4.45
2018-07-27T00:23:37.879Z,4.45
2018-07-27T00:23:50.288Z,4.45
2018-07-27T00:24:02.688Z,4.45
2018-07-27T00:24:15.094Z,4.45
2018-07-27T00:24:27.490Z,4.45
2018-07-27T00:24:39.893Z,4.45
2018-07-27T00:24:52.296Z,4.45
2018-07-27T00:25:04.714Z,4.45
2018-07-27T00:25:17.107Z,4.45
2018-07-27T00:25:29.521Z,4.45
2018-07-27T00:25:41.928Z,4.45
2018-07-27T00:25:54.335Z,4.45
2018-07-27T00:26:06.775Z,4.45
2018-07-27T00:26:19.195Z,4.45
2018-07-27T00:26:31.592Z,4.45
2018-07-27T00:26:43.986Z,4.45
2018-07-27T00:26:56.394Z,4.45
2018-07-27T00:27:08.792Z,4.45
2018-07-27T00:27:21.194Z,4.45
2018-07-27T00:27:33.578Z,4.45
2018-07-27T00:27:45.999Z,4.45
2018-07-27T00:27:58.402Z,4.45
2018-07-27T00:28:10.814Z,4.45
2018-07-27T00:28:23.253Z,4.45
2018-07-27T00:28:35.819Z,4.45
2018-07-27T00:28:48.235Z,4.45
2018-07-27T00:29:00.638Z,4.45
2018-07-27T00:29:13.049Z,4.45
2018-07-27T00:29:25.468Z,4.45
2018-07-27T00:29:37.887Z,4.45
2018-07-27T00:29:50.299Z,4.45
2018-07-27T00:30:02.727Z,4.45
2018-07-27T00:30:15.128Z,4.45
2018-07-27T00:30:27.531Z,4.45
2018-07-27T00:30:39.931Z,4.45
2018-07-27T00:30:52.548Z,4.45
2018-07-27T00:31:04.945Z,4.45
2018-07-27T00:31:17.359Z,4.45
2018-07-27T00:31:29.778Z,4.45
2018-07-27T00:31:42.179Z,4.52
2018-07-27T00:31:54.577Z,4.52
2018-07-27T00:32:06.973Z,4.52
2018-07-27T00:32:19.396Z,4.52
2018-07-27T00:32:32.039Z,4.52
2018-07-27T00:32:44.425Z,4.52
2018-07-27T00:32:56.856Z,4.52
2018-07-27T00:33:09.254Z,4.52
2018-07-27T00:33:21.652Z,4.52
2018-07-27T00:33:34.098Z,4.52
2018-07-27T00:33:46.488Z,4.52
2018-07-27T00:33:58.961Z,4.52
2018-07-27T00:34:11.484Z,4.52
2018-07-27T00:34:23.905Z,4.52
2018-07-27T00:34:36.319Z,4.52
2018-07-27T00:34:48.710Z,4.52
2018-07-27T00:35:01.131Z,4.52
2018-07-27T00:35:13.566Z,4.52
2018-07-27T00:35:25.970Z,4.52
2018-07-27T00:35:38.376Z,4.52
2018-07-27T00:35:50.863Z,4.52
2018-07-27T00:36:03.256Z,4.52
2018-07-27T00:36:15.646Z,4.52
2018-07-27T00:36:28.058Z,4.52
2018-07-27T00:36:40.477Z,4.52
2018-07-27T00:36:52.950Z,4.52
2018-07-27T00:37:05.361Z,4.52
2018-07-27T00:37:17.764Z,4.52
2018-07-27T00:37:30.178Z,4.52
2018-07-27T00:37:42.578Z,4.52
2018-07-27T00:37:55.051Z,4.52
2018-07-27T00:38:07.451Z,4.52
2018-07-27T00:38:19.840Z,4.52
2018-07-27T00:38:32.214Z,4.52
2018-07-27T00:38:44.612Z,4.52
2018-07-27T00:38:57.007Z,4.52
2018-07-27T00:39:09.412Z,4.52
2018-07-27T00:39:21.819Z,4.52
2018-07-27T00:39:34.237Z,4.52
2018-07-27T00:39:46.644Z,4.52
2018-07-27T00:39:59.081Z,4.52
2018-07-27T00:40:11.537Z,4.52
2018-07-27T00:40:23.973Z,4.52
2018-07-27T00:40:36.398Z,4.52
2018-07-27T00:40:48.855Z,4.52
2018-07-27T00:41:01.296Z,4.52
2018-07-27T00:41:13.688Z,4.52
2018-07-27T00:41:26.099Z,4.52
2018-07-27T00:41:38.517Z,4.52
2018-07-27T00:41:50.919Z,4.77
2018-07-27T00:42:03.330Z,4.77
2018-07-27T00:42:15.750Z,4.77
2018-07-27T00:42:28.138Z,4.77
2018-07-27T00:42:40.548Z,4.77
2018-07-27T00:42:52.948Z,4.77
2018-07-27T00:43:05.357Z,4.77
2018-07-27T00:43:17.901Z,4.77
2018-07-27T00:43:30.293Z,4.77
2018-07-27T00:43:42.748Z,4.77
2018-07-27T00:43:55.160Z,4.77
2018-07-27T00:44:07.591Z,4.77
2018-07-27T00:44:20.010Z,4.77
2018-07-27T00:44:32.441Z,4.77
2018-07-27T00:44:45.036Z,4.77
2018-07-27T00:44:57.453Z,4.77
2018-07-27T00:45:09.869Z,4.77
2018-07-27T00:45:22.292Z,4.77
2018-07-27T00:45:34.740Z,4.77
2018-07-27T00:45:47.156Z,4.77
2018-07-27T00:45:59.566Z,4.77
2018-07-27T00:46:11.988Z,4.77
2018-07-27T00:46:24.403Z,4.77
2018-07-27T00:46:36.821Z,4.77
2018-07-27T00:46:49.255Z,4.77
2018-07-27T00:47:01.665Z,4.77
2018-07-27T00:47:14.060Z,4.77
2018-07-27T00:47:26.463Z,4.77
2018-07-27T00:47:38.866Z,4.77
2018-07-27T00:47:51.276Z,4.77
2018-07-27T00:48:03.684Z,4.77
2018-07-27T00:48:16.128Z,4.77
2018-07-27T00:48:28.551Z,4.77
2018-07-27T00:48:40.980Z,4.77
2018-07-27T00:48:53.445Z,4.77
2018-07-27T00:49:05.845Z,4.77
2018-07-27T00:49:18.252Z,4.77
2018-07-27T00:49:30.702Z,4.77
2018-07-27T00:49:43.098Z,4.77
2018-07-27T00:49:55.511Z,4.77
2018-07-27T00:50:07.934Z,4.77
2018-07-27T00:50:20.343Z,4.77
2018-07-27T00:50:32.778Z,4.77
2018-07-27T00:50:45.183Z,4.77
2018-07-27T00:50:57.604Z,4.77
2018-07-27T00:51:10.017Z,4.77
2018-07-27T00:51:22.417Z,4.77
2018-07-27T00:51:34.828Z,4.77
2018-07-27T00:51:47.231Z,4.94
2018-07-27T00:51:59.633Z,4.94
2018-07-27T00:52:12.108Z,4.94
2018-07-27T00:52:24.509Z,4.94
2018-07-27T00:52:36.949Z,4.94
2018-07-27T00:52:49.363Z,4.94
2018-07-27T00:53:01.759Z,4.94
2018-07-27T00:53:14.486Z,4.94
2018-07-27T00:53:26.882Z,4.94
2018-07-27T00:53:39.298Z,4.94
2018-07-27T00:53:51.714Z,4.94
2018-07-27T00:54:04.134Z,4.94
2018-07-27T00:54:16.608Z,4.94
2018-07-27T00:54:29.023Z,4.94
2018-07-27T00:54:41.450Z,4.94
2018-07-27T00:54:53.859Z,4.94
2018-07-27T00:55:06.261Z,4.94
2018-07-27T00:55:18.792Z,4.94
2018-07-27T00:55:31.197Z,4.94
2018-07-27T00:55:43.602Z,4.94
2018-07-27T00:55:56.006Z,4.94
2018-07-27T00:56:08.424Z,4.94
2018-07-27T00:56:20.820Z,4.94
2018-07-27T00:56:33.230Z,4.94
2018-07-27T00:56:45.627Z,4.94
2018-07-27T00:56:58.011Z,4.94
2018-07-27T00:57:10.397Z,4.94
2018-07-27T00:57:22.811Z,4.94
2018-07-27T00:57:35.682Z,4.94
2018-07-27T00:57:48.103Z,4.94
2018-07-27T00:58:00.500Z,4.94
2018-07-27T00:58:13.004Z,4.94
2018-07-27T00:58:25.409Z,4.94
2018-07-27T00:58:37.805Z,4.94
2018-07-27T00:58:50.253Z,4.94
2018-07-27T00:59:02.806Z,4.94
2018-07-27T00:59:15.230Z,4.94
2018-07-27T00:59:27.643Z,4.94
2018-07-27T00:59:40.054Z,4.94
2018-07-27T00:59:52.456Z,4.94
2018-07-27T01:00:04.890Z,4.94
2018-07-27T01:00:17.292Z,4.94
2018-07-27T01:00:29.739Z,4.94
2018-07-27T01:00:42.266Z,4.94
2018-07-27T01:00:54.789Z,4.94
2018-07-27T01:01:07.209Z,4.94
2018-07-27T01:01:19.750Z,4.94
2018-07-27T01:01:32.147Z,4.94
2018-07-27T01:01:44.549Z,5
2018-07-27T01:01:56.955Z,5
2018-07-27T01:02:09.450Z,5
2018-07-27T01:02:21.846Z,5
2018-07-27T01:02:34.268Z,5
2018-07-27T01:02:46.706Z,5
2018-07-27T01:02:59.119Z,5
2018-07-27T01:03:11.534Z,5
2018-07-27T01:03:23.959Z,5
2018-07-27T01:03:36.379Z,5
2018-07-27T01:03:48.776Z,5
2018-07-27T01:04:01.201Z,5
2018-07-27T01:04:13.624Z,5
2018-07-27T01:04:26.052Z,5
2018-07-27T01:04:38.616Z,5
2018-07-27T01:04:51.027Z,5
2018-07-27T01:05:03.471Z,5
2018-07-27T01:05:15.938Z,5
2018-07-27T01:05:28.343Z,5
2018-07-27T01:05:40.820Z,5
2018-07-27T01:05:53.249Z,5
2018-07-27T01:06:05.685Z,5
2018-07-27T01:06:18.111Z,5
2018-07-27T01:06:30.547Z,5
2018-07-27T01:06:42.987Z,5
2018-07-27T01:06:55.418Z,5
2018-07-27T01:07:07.843Z,5
2018-07-27T01:07:20.268Z,5
2018-07-27T01:07:32.683Z,5
2018-07-27T01:07:45.085Z,5
2018-07-27T01:07:57.530Z,5
2018-07-27T01:08:09.915Z,5
2018-07-27T01:08:22.325Z,5
2018-07-27T01:08:34.752Z,5
2018-07-27T01:08:47.145Z,5
2018-07-27T01:08:59.547Z,5
2018-07-27T01:09:11.961Z,5
2018-07-27T01:09:24.364Z,5
2018-07-27T01:09:36.782Z,5
2018-07-27T01:09:49.175Z,5
2018-07-27T01:10:01.594Z,5
2018-07-27T01:10:14.007Z,5
2018-07-27T01:10:26.467Z,5
2018-07-27T01:10:38.867Z,5
2018-07-27T01:10:51.269Z,5
2018-07-27T01:11:03.684Z,5
2018-07-27T01:11:16.091Z,5
2018-07-27T01:11:28.487Z,5
2018-07-27T01:11:40.921Z,5
2018-07-27T01:11:53.311Z,5.31
2018-07-27T01:12:05.733Z,5.31
2018-07-27T01:12:18.141Z,5.31
2018-07-27T01:12:30.548Z,5.31
2018-07-27T01:12:42.986Z,5.31
2018-07-27T01:12:55.399Z,5.31
2018-07-27T01:13:07.820Z,5.31
2018-07-27T01:13:20.241Z,5.31
2018-07-27T01:13:32.641Z,5.31
2018-07-27T01:13:45.038Z,5.31
2018-07-27T01:13:57.444Z,5.31
2018-07-27T01:14:09.850Z,5.31
2018-07-27T01:14:22.248Z,5.31
2018-07-27T01:14:34.669Z,5.31
2018-07-27T01:14:47.092Z,5.31
2018-07-27T01:14:59.479Z,5.31
2018-07-27T01:15:11.875Z,5.31
2018-07-27T01:15:24.279Z,5.31
2018-07-27T01:15:36.732Z,5.31
2018-07-27T01:15:49.151Z,5.31
2018-07-27T01:16:01.580Z,5.31
2018-07-27T01:16:14.070Z,5.31
2018-07-27T01:16:26.470Z,5.31
2018-07-27T01:16:38.879Z,5.31
2018-07-27T01:16:51.286Z,5.31
2018-07-27T01:17:03.741Z,5.31
2018-07-27T01:17:16.153Z,5.31
2018-07-27T01:17:28.558Z,5.31
2018-07-27T01:17:40.975Z,5.31
2018-07-27T01:17:53.359Z,5.31
2018-07-27T01:18:05.770Z,5.31
2018-07-27T01:18:18.179Z,5.31
2018-07-27T01:18:30.625Z,5.31
2018-07-27T01:18:43.037Z,5.31
2018-07-27T01:18:55.468Z,5.31
2018-07-27T01:19:07.858Z,5.31
2018-07-27T01:19:20.292Z,5.31
2018-07-27T01:19:32.712Z,5.31
2018-07-27T01:19:45.122Z,5.31
2018-07-27T01:19:57.520Z,5.31
2018-07-27T01:20:09.929Z,5.31
2018-07-27T01:20:22.329Z,5.31
2018-07-27T01:20:34.765Z,5.31
2018-07-27T01:20:47.157Z,5.31
2018-07-27T01:20:59.563Z,5.31
2018-07-27T01:21:12.018Z,5.31
2018-07-27T01:21:24.413Z,5.31
2018-07-27T01:21:36.913Z,5.31
2018-07-27T01:21:49.325Z,5.19
2018-07-27T01:22:01.726Z,5.19
2018-07-27T01:22:14.158Z,5.19
2018-07-27T01:22:26.572Z,5.19
2018-07-27T01:22:39.000Z,5.19
2018-07-27T01:22:51.440Z,5.19
2018-07-27T01:23:03.841Z,5.19
2018-07-27T01:23:16.367Z,5.19
2018-07-27T01:23:28.773Z,5.19
2018-07-27T01:23:41.185Z,5.19
2018-07-27T01:23:53.594Z,5.19
2018-07-27T01:24:05.988Z,5.19
2018-07-27T01:24:18.384Z,5.19
2018-07-27T01:24:30.790Z,5.19
2018-07-27T01:24:43.263Z,5.19
2018-07-27T01:24:55.711Z,5.19
2018-07-27T01:25:08.126Z,5.19
2018-07-27T01:25:20.545Z,5.19
2018-07-27T01:25:32.974Z,5.19
2018-07-27T01:25:45.416Z,5.19
2018-07-27T01:25:57.832Z,5.19
2018-07-27T01:26:10.235Z,5.19
2018-07-27T01:26:22.622Z,5.19
2018-07-27T01:26:35.022Z,5.19
2018-07-27T01:26:47.432Z,5.19
2018-07-27T01:26:59.837Z,5.19
2018-07-27T01:27:12.263Z,5.19
2018-07-27T01:27:24.673Z,5.19
2018-07-27T01:27:37.084Z,5.19
2018-07-27T01:27:49.556Z,5.19
2018-07-27T01:28:01.964Z,5.19
2018-07-27T01:28:14.406Z,5.19
2018-07-27T01:28:26.816Z,5.19
2018-07-27T01:28:39.361Z,5.19
2018-07-27T01:28:51.789Z,5.19
2018-07-27T01:29:04.192Z,5.19
2018-07-27T01:29:16.613Z,5.19
2018-07-27T01:29:29.022Z,5.19
2018-07-27T01:29:41.477Z,5.19
2018-07-27T01:29:53.876Z,5.19
2018-07-27T01:30:06.281Z,5.19
2018-07-27T01:30:18.710Z,5.19
2018-07-27T01:30:31.160Z,5.19
2018-07-27T01:30:43.594Z,5.19
2018-07-27T01:30:56.018Z,5.19
2018-07-27T01:31:08.418Z,5.19
2018-07-27T01:31:20.942Z,5.19
2018-07-27T01:31:33.349Z,5.19
2018-07-27T01:31:45.784Z,4.95
2018-07-27T01:31:58.181Z,4.95
2018-07-27T01:32:10.598Z,4.95
2018-07-27T01:32:23.171Z,4.95
2018-07-27T01:32:35.586Z,4.95
2018-07-27T01:32:48.008Z,4.95
2018-07-27T01:33:00.405Z,4.95
2018-07-27T01:33:12.831Z,4.95
2018-07-27T01:33:25.230Z,4.95
2018-07-27T01:33:37.634Z,4.95
2018-07-27T01:33:50.035Z,4.95
2018-07-27T01:34:02.437Z,4.95
2018-07-27T01:34:14.872Z,4.95
2018-07-27T01:34:27.334Z,4.95
2018-07-27T01:34:39.755Z,4.95
2018-07-27T01:34:52.155Z,4.95
2018-07-27T01:35:04.576Z,4.95
2018-07-27T01:35:16.974Z,4.95
2018-07-27T01:35:29.397Z,4.95
2018-07-27T01:35:41.786Z,4.95
2018-07-27T01:35:54.189Z,4.95
2018-07-27T01:36:06.745Z,4.95
2018-07-27T01:36:19.140Z,4.95
2018-07-27T01:36:31.585Z,4.95
2018-07-27T01:36:43.998Z,4.95
2018-07-27T01:36:56.404Z,4.95
2018-07-27T01:37:08.795Z,4.95
2018-07-27T01:37:21.204Z,4.95
2018-07-27T01:37:33.613Z,4.95
2018-07-27T01:37:46.057Z,4.95
2018-07-27T01:37:58.468Z,4.95
2018-07-27T01:38:10.936Z,4.95
2018-07-27T01:38:23.398Z,4.95
2018-07-27T01:38:35.787Z,4.95
2018-07-27T01:38:48.251Z,4.95
2018-07-27T01:39:00.664Z,4.95
2018-07-27T01:39:13.079Z,4.95
2018-07-27T01:39:25.512Z,4.95
2018-07-27T01:39:37.929Z,4.95
2018-07-27T01:39:50.352Z,4.95
2018-07-27T01:40:02.746Z,4.95
2018-07-27T01:40:15.182Z,4.95
2018-07-27T01:40:27.585Z,4.95
2018-07-27T01:40:39.977Z,4.95
2018-07-27T01:40:52.405Z,4.95
2018-07-27T01:41:04.906Z,4.95
2018-07-27T01:41:17.327Z,4.95
2018-07-27T01:41:29.755Z,4.95
2018-07-27T01:41:42.158Z,4.95
2018-07-27T01:41:54.578Z,5.83
2018-07-27T01:42:07.010Z,5.83
2018-07-27T01:42:19.419Z,5.83
2018-07-27T01:42:31.828Z,5.83
2018-07-27T01:42:44.291Z,5.83
2018-07-27T01:42:56.697Z,5.83
2018-07-27T01:43:09.114Z,5.83
2018-07-27T01:43:21.606Z,5.83
2018-07-27T01:43:33.999Z,5.83
2018-07-27T01:43:46.392Z,5.83
2018-07-27T01:43:58.781Z,5.83
2018-07-27T01:44:11.232Z,5.83
2018-07-27T01:44:23.662Z,5.83
2018-07-27T01:44:36.060Z,5.83
2018-07-27T01:44:48.635Z,5.83
2018-07-27T01:45:01.044Z,5.83
2018-07-27T01:45:13.458Z,5.83
2018-07-27T01:45:25.864Z,5.83
2018-07-27T01:45:38.275Z,5.83
2018-07-27T01:45:50.709Z,5.83
2018-07-27T01:46:03.116Z,5.83
2018-07-27T01:46:15.670Z,5.83
2018-07-27T01:46:28.047Z,5.83
2018-07-27T01:46:40.442Z,5.83
2018-07-27T01:46:52.840Z,5.83
2018-07-27T01:47:05.251Z,5.83
2018-07-27T01:47:17.654Z,5.83
2018-07-27T01:47:30.063Z,5.83
2018-07-27T01:47:42.465Z,5.83
2018-07-27T01:47:54.852Z,5.83
2018-07-27T01:48:07.243Z,5.83
2018-07-27T01:48:19.662Z,5.83
2018-07-27T01:48:32.089Z,5.83
2018-07-27T01:48:44.486Z,5.83
2018-07-27T01:48:57.100Z,5.83
2018-07-27T01:49:09.534Z,5.83
2018-07-27T01:49:21.942Z,5.83
2018-07-27T01:49:34.370Z,5.83
2018-07-27T01:49:46.762Z,5.83
2018-07-27T01:49:59.179Z,5.83
2018-07-27T01:50:11.606Z,5.83
2018-07-27T01:50:24.008Z,5.83
2018-07-27T01:50:36.408Z,5.83
2018-07-27T01:50:48.798Z,5.83
2018-07-27T01:51:01.609Z,5.83
2018-07-27T01:51:14.861Z,5.83
2018-07-27T01:51:27.308Z,5.83
2018-07-27T01:51:39.712Z,5.83
2018-07-27T01:51:52.114Z,6.04
2018-07-27T01:52:04.547Z,6.04
2018-07-27T01:52:16.943Z,6.04
2018-07-27T01:52:29.349Z,6.04
2018-07-27T01:52:41.754Z,6.04
2018-07-27T01:52:54.199Z,6.04
2018-07-27T01:53:06.644Z,6.04
2018-07-27T01:53:19.350Z,6.04
2018-07-27T01:53:31.770Z,6.04
2018-07-27T01:53:44.175Z,6.04
2018-07-27T01:53:56.596Z,6.04
2018-07-27T01:54:09.008Z,6.04
2018-07-27T01:54:21.447Z,6.04
2018-07-27T01:54:33.862Z,6.04
2018-07-27T01:54:46.296Z,6.04
2018-07-27T01:54:58.687Z,6.04
2018-07-27T01:55:11.122Z,6.04
2018-07-27T01:55:23.796Z,6.04
2018-07-27T01:55:36.197Z,6.04
2018-07-27T01:55:48.606Z,6.04
2018-07-27T01:56:01.010Z,6.04
2018-07-27T01:56:13.401Z,6.04
2018-07-27T01:56:25.855Z,6.04
2018-07-27T01:56:38.275Z,6.04
2018-07-27T01:56:50.692Z,6.04
2018-07-27T01:57:03.091Z,6.04
2018-07-27T01:57:15.493Z,6.04
2018-07-27T01:57:28.041Z,6.04
2018-07-27T01:57:40.439Z,6.04
2018-07-27T01:57:52.864Z,6.04
2018-07-27T01:58:05.288Z,6.04
2018-07-27T01:58:17.692Z,6.04
2018-07-27T01:58:30.101Z,6.04
2018-07-27T01:58:42.493Z,6.04
2018-07-27T01:58:54.890Z,6.04
2018-07-27T01:59:07.293Z,6.04
2018-07-27T01:59:19.711Z,6.04
2018-07-27T01:59:32.093Z,6.04
2018-07-27T01:59:44.489Z,6.04
2018-07-27T01:59:56.876Z,6.04
2018-07-27T02:00:09.298Z,6.04
2018-07-27T02:00:21.805Z,6.04
2018-07-27T02:00:34.265Z,6.04
2018-07-27T02:00:46.865Z,6.04
2018-07-27T02:00:59.292Z,6.04
2018-07-27T02:01:11.935Z,6.04
2018-07-27T02:01:24.360Z,6.04
2018-07-27T02:01:36.813Z,6.04
2018-07-27T02:01:49.234Z,5.63
2018-07-27T02:02:01.687Z,5.63
2018-07-27T02:02:14.315Z,5.63
2018-07-27T02:02:26.738Z,5.63
2018-07-27T02:02:39.154Z,5.63
2018-07-27T02:02:51.559Z,5.63
2018-07-27T02:03:03.960Z,5.63
2018-07-27T02:03:16.366Z,5.63
2018-07-27T02:03:28.764Z,5.63
2018-07-27T02:03:41.159Z,5.63
2018-07-27T02:03:53.567Z,5.63
2018-07-27T02:04:06.014Z,5.63
2018-07-27T02:04:18.429Z,5.63
2018-07-27T02:04:30.832Z,5.63
2018-07-27T02:04:43.281Z,5.63
2018-07-27T02:04:55.696Z,5.63
2018-07-27T02:05:08.280Z,5.63
2018-07-27T02:05:20.720Z,5.63
2018-07-27T02:05:33.129Z,5.63
2018-07-27T02:05:45.536Z,5.63
2018-07-27T02:05:58.132Z,5.63
2018-07-27T02:06:11.348Z,5.63
2018-07-27T02:06:23.778Z,5.63
2018-07-27T02:06:36.194Z,5.63
2018-07-27T02:06:48.635Z,5.63
2018-07-27T02:07:01.055Z,5.63
2018-07-27T02:07:13.484Z,5.63
2018-07-27T02:07:25.901Z,5.63
2018-07-27T02:07:38.309Z,5.63
2018-07-27T02:07:50.715Z,5.63
2018-07-27T02:08:03.304Z,5.63
2018-07-27T02:08:15.703Z,5.63
2018-07-27T02:08:28.121Z,5.63
2018-07-27T02:08:40.524Z,5.63
2018-07-27T02:08:52.929Z,5.63
2018-07-27T02:09:05.336Z,5.63
2018-07-27T02:09:17.765Z,5.63
2018-07-27T02:09:30.174Z,5.63
2018-07-27T02:09:42.625Z,5.63
2018-07-27T02:09:55.023Z,5.63
2018-07-27T02:10:07.474Z,5.63
2018-07-27T02:10:19.875Z,5.63
2018-07-27T02:10:32.283Z,5.63
2018-07-27T02:10:44.667Z,5.63
2018-07-27T02:10:57.103Z,5.63
2018-07-27T02:11:09.511Z,5.63
2018-07-27T02:11:21.921Z,5.63
2018-07-27T02:11:34.337Z,5.63
2018-07-27T02:11:46.762Z,5.63
2018-07-27T02:11:59.179Z,5.8
2018-07-27T02:12:11.632Z,5.8
2018-07-27T02:12:24.042Z,5.8
2018-07-27T02:12:36.477Z,5.8
2018-07-27T02:12:48.887Z,5.8
2018-07-27T02:13:01.586Z,5.8
2018-07-27T02:13:14.708Z,5.8
2018-07-27T02:13:27.112Z,5.8
2018-07-27T02:13:39.521Z,5.8
2018-07-27T02:13:51.922Z,5.8
2018-07-27T02:14:04.324Z,5.8
2018-07-27T02:14:16.761Z,5.8
2018-07-27T02:14:29.155Z,5.8
2018-07-27T02:14:41.553Z,5.8
2018-07-27T02:14:53.968Z,5.8
2018-07-27T02:15:06.453Z,5.8
2018-07-27T02:15:18.853Z,5.8
2018-07-27T02:15:31.257Z,5.8
2018-07-27T02:15:43.649Z,5.8
2018-07-27T02:15:56.106Z,5.8
2018-07-27T02:16:08.510Z,5.8
2018-07-27T02:16:21.008Z,5.8
2018-07-27T02:16:33.395Z,5.8
2018-07-27T02:16:45.795Z,5.8
2018-07-27T02:16:58.235Z,5.8
2018-07-27T02:17:10.643Z,5.8
2018-07-27T02:17:23.041Z,5.8
2018-07-27T02:17:35.448Z,5.8
2018-07-27T02:17:47.845Z,5.8
2018-07-27T02:18:00.243Z,5.8
2018-07-27T02:18:12.650Z,5.8
2018-07-27T02:18:25.194Z,5.8
2018-07-27T02:18:37.749Z,5.8
2018-07-27T02:18:50.171Z,5.8
2018-07-27T02:19:02.564Z,5.8
2018-07-27T02:19:14.999Z,5.8
2018-07-27T02:19:27.420Z,5.8
2018-07-27T02:19:39.836Z,5.8
2018-07-27T02:19:52.260Z,5.8
2018-07-27T02:20:04.672Z,5.8
2018-07-27T02:20:17.066Z,5.8
2018-07-27T02:20:29.477Z,5.8
2018-07-27T02:20:41.879Z,5.8
2018-07-27T02:20:54.285Z,5.8
2018-07-27T02:21:06.694Z,5.8
2018-07-27T02:21:19.128Z,5.8
2018-07-27T02:21:31.617Z,5.8
2018-07-27T02:21:44.014Z,5.8
2018-07-27T02:21:56.414Z,5.67
2018-07-27T02:22:08.820Z,5.67
2018-07-27T02:22:21.242Z,5.67
2018-07-27T02:22:33.661Z,5.67
2018-07-27T02:22:46.082Z,5.67
2018-07-27T02:22:58.486Z,5.67
2018-07-27T02:23:11.008Z,5.67
2018-07-27T02:23:23.429Z,5.67
2018-07-27T02:23:36.377Z,5.67
2018-07-27T02:23:49.445Z,5.67
2018-07-27T02:24:01.862Z,5.67
2018-07-27T02:24:14.286Z,5.67
2018-07-27T02:24:26.700Z,5.67
2018-07-27T02:24:39.138Z,5.67
2018-07-27T02:24:51.549Z,5.67
2018-07-27T02:25:03.957Z,5.67
2018-07-27T02:25:16.363Z,5.67
2018-07-27T02:25:28.764Z,5.67
2018-07-27T02:25:41.168Z,5.67
2018-07-27T02:25:53.588Z,5.67
2018-07-27T02:26:05.996Z,5.67
2018-07-27T02:26:18.390Z,5.67
2018-07-27T02:26:30.791Z,5.67
2018-07-27T02:26:43.185Z,5.67
2018-07-27T02:26:55.596Z,5.67
2018-07-27T02:27:08.004Z,5.67
2018-07-27T02:27:20.421Z,5.67
2018-07-27T02:27:32.824Z,5.67
2018-07-27T02:27:45.232Z,5.67
2018-07-27T02:27:57.623Z,5.67
2018-07-27T02:28:10.052Z,5.67
2018-07-27T02:28:22.522Z,5.67
2018-07-27T02:28:35.105Z,5.67
2018-07-27T02:28:47.516Z,5.67
2018-07-27T02:28:59.927Z,5.67
2018-07-27T02:29:12.311Z,5.67
2018-07-27T02:29:24.729Z,5.67
2018-07-27T02:29:37.133Z,5.67
2018-07-27T02:29:49.560Z,5.67
2018-07-27T02:30:02.006Z,5.67
2018-07-27T02:30:14.434Z,5.67
2018-07-27T02:30:26.910Z,5.67
2018-07-27T02:30:39.339Z,5.67
2018-07-27T02:30:51.760Z,5.67
2018-07-27T02:31:04.194Z,5.67
2018-07-27T02:31:16.610Z,5.67
2018-07-27T02:31:29.070Z,5.67
2018-07-27T02:31:41.477Z,5.67
2018-07-27T02:31:53.905Z,5.95
2018-07-27T02:32:06.499Z,5.95
2018-07-27T02:32:18.912Z,5.95
2018-07-27T02:32:31.690Z,5.95
2018-07-27T02:32:44.119Z,5.95
2018-07-27T02:32:56.534Z,5.95
2018-07-27T02:33:08.971Z,5.95
2018-07-27T02:33:21.391Z,5.95
2018-07-27T02:33:33.869Z,5.95
2018-07-27T02:33:46.803Z,5.95
2018-07-27T02:34:00.272Z,5.95
2018-07-27T02:34:12.726Z,5.95
2018-07-27T02:34:25.181Z,5.95
2018-07-27T02:34:37.645Z,5.95
2018-07-27T02:34:50.087Z,5.95
2018-07-27T02:35:02.504Z,5.95
2018-07-27T02:35:14.947Z,5.95
2018-07-27T02:35:27.472Z,5.95
2018-07-27T02:35:39.915Z,5.95
2018-07-27T02:35:52.339Z,5.95
2018-07-27T02:36:04.761Z,5.95
2018-07-27T02:36:17.204Z,5.95
2018-07-27T02:36:29.630Z,5.95
2018-07-27T02:36:42.047Z,5.95
2018-07-27T02:36:54.474Z,5.95
2018-07-27T02:37:06.903Z,5.95
2018-07-27T02:37:19.303Z,5.95
2018-07-27T02:37:31.798Z,5.95
2018-07-27T02:37:44.237Z,5.95
2018-07-27T02:37:56.661Z,5.95
2018-07-27T02:38:09.112Z,5.95
2018-07-27T02:38:21.515Z,5.95
2018-07-27T02:38:33.940Z,5.95
2018-07-27T02:38:46.369Z,5.95
2018-07-27T02:38:58.812Z,5.95
2018-07-27T02:39:11.244Z,5.95
2018-07-27T02:39:23.674Z,5.95
2018-07-27T02:39:36.093Z,5.95
2018-07-27T02:39:48.559Z,5.95
2018-07-27T02:40:01.901Z,5.95
2018-07-27T02:40:15.254Z,5.95
2018-07-27T02:40:27.730Z,5.95
2018-07-27T02:40:40.228Z,5.95
2018-07-27T02:40:52.661Z,5.95
2018-07-27T02:41:05.082Z,5.95
2018-07-27T02:41:17.540Z,5.95
2018-07-27T02:41:29.977Z,5.95
2018-07-27T02:41:42.420Z,5.95
2018-07-27T02:41:54.873Z,5.52
2018-07-27T02:42:07.320Z,5.52
2018-07-27T02:42:19.736Z,5.52
2018-07-27T02:42:32.140Z,5.52
2018-07-27T02:42:44.561Z,5.52
2018-07-27T02:42:56.996Z,5.52
2018-07-27T02:43:09.462Z,5.52
2018-07-27T02:43:22.076Z,5.52
2018-07-27T02:43:34.526Z,5.52
2018-07-27T02:43:46.963Z,5.52
2018-07-27T02:43:59.426Z,5.52
2018-07-27T02:44:11.865Z,5.52
2018-07-27T02:44:24.293Z,5.52
2018-07-27T02:44:36.749Z,5.52
2018-07-27T02:44:49.338Z,5.52
2018-07-27T02:45:01.807Z,5.52
2018-07-27T02:45:14.237Z,5.52
2018-07-27T02:45:26.687Z,5.52
2018-07-27T02:45:39.132Z,5.52
2018-07-27T02:45:51.576Z,5.52
2018-07-27T02:46:03.987Z,5.52
2018-07-27T02:46:16.429Z,5.52
2018-07-27T02:46:28.857Z,5.52
2018-07-27T02:46:41.309Z,5.52
2018-07-27T02:46:53.781Z,5.52
2018-07-27T02:47:06.209Z,5.52